Time;durP1;ratioP1;P1;durP2;ratioP2;P2;SDS_P1;SDS_P2;PMS_P1;PMS_P2;Temp;Humidity;BMP_temperature;BMP_pressure;BME280_temperature;BME280_humidity;BME280_pressure;Samples;Min_cycle;Max_cycle;Signal;HPM_P1;HPM_P2
2021/12/26 00:00:27;;;;;;;10.85;6.78;;;;;;;;;;5073282;28;20021;-66
2021/12/26 00:02:53;;;;;;;10.30;6.43;;;;;;;;;;5073012;28;20027;-67
2021/12/26 00:05:21;;;;;;;10.43;6.57;;;;;;;;;;5072791;28;20024;-66
2021/12/26 00:07:47;;;;;;;9.23;6.35;;;;;;;;;;5073182;28;20161;-66
2021/12/26 00:10:15;;;;;;;13.40;7.70;;;;;;;;;;5073067;28;20063;-66
2021/12/26 00:12:41;;;;;;;11.88;7.20;;;;;;;;;;5075011;28;20092;-66
2021/12/26 00:15:08;;;;;;;10.82;7.30;;;;;;;;;;5072680;28;20123;-66
2021/12/26 00:17:33;;;;;;;11.77;6.57;;;;;;;;;;5074884;28;20036;-67
2021/12/26 00:19:59;;;;;;;11.00;6.70;;;;;;;;;;5072909;28;20020;-66
2021/12/26 00:22:25;;;;;;;10.88;6.80;;;;;;;;;;5072719;28;20020;-66
2021/12/26 00:24:52;;;;;;;12.32;6.97;;;;;;;;;;5074516;28;20024;-67
2021/12/26 00:27:19;;;;;;;11.38;6.80;;;;;;;;;;5072665;28;20108;-66
2021/12/26 00:29:46;;;;;;;11.63;7.32;;;;;;;;;;5072708;28;20024;-66
2021/12/26 00:32:11;;;;;;;12.20;6.85;;;;;;;;;;5072631;28;20036;-66
2021/12/26 00:34:37;;;;;;;10.77;7.00;;;;;;;;;;5072010;28;20048;-66
2021/12/26 00:37:06;;;;;;;10.70;6.65;;;;;;;;;;5072549;28;20433;-67
2021/12/26 00:39:33;;;;;;;12.93;7.10;;;;;;;;;;5074460;28;20104;-66
2021/12/26 00:41:59;;;;;;;11.48;7.22;;;;;;;;;;5072421;28;20028;-67
2021/12/26 00:44:25;;;;;;;12.60;6.80;;;;;;;;;;5055769;28;20128;-66
2021/12/26 00:46:53;;;;;;;10.57;6.60;;;;;;;;;;5074301;28;20051;-66
2021/12/26 00:49:20;;;;;;;10.82;6.78;;;;;;;;;;5072262;28;20407;-66
2021/12/26 00:51:46;;;;;;;11.40;6.80;;;;;;;;;;5074223;28;20032;-66
2021/12/26 00:54:11;;;;;;;9.93;6.72;;;;;;;;;;5071850;28;20047;-66
2021/12/26 00:56:37;;;;;;;13.10;6.57;;;;;;;;;;5072097;28;20025;-66
2021/12/26 00:59:03;;;;;;;11.95;7.22;;;;;;;;;;5073322;28;20111;-66
2021/12/26 01:01:28;;;;;;;12.55;7.65;;;;;;;;;;5068931;28;20020;-66
2021/12/26 01:03:54;;;;;;;12.93;7.57;;;;;;;;;;5070406;28;20024;-66
2021/12/26 01:06:19;;;;;;;15.05;7.45;;;;;;;;;;5071761;28;20025;-67
2021/12/26 01:08:48;;;;;;;11.43;6.97;;;;;;;;;;5073625;28;20154;-66
2021/12/26 01:11:23;;;;;;;12.90;7.22;;;;;;;;;;5069972;28;20384;-66
2021/12/26 01:13:49;;;;;;;11.05;7.53;;;;;;;;;;5071112;28;20384;-66
2021/12/26 01:16:15;;;;;;;12.85;6.65;;;;;;;;;;5071759;28;20490;-66
2021/12/26 01:18:50;;;;;;;10.27;6.97;;;;;;;;;;5071750;28;20556;-66
2021/12/26 01:21:20;;;;;;;11.45;6.45;;;;;;;;;;5071703;28;20027;-67
2021/12/26 01:24:01;;;;;;;11.85;6.80;;;;;;;;;;5071272;28;20020;-66
2021/12/26 01:26:28;;;;;;;10.38;7.07;;;;;;;;;;5071520;28;20796;-68
2021/12/26 01:28:54;;;;;;;10.25;7.05;;;;;;;;;;5071384;28;20020;-67
2021/12/26 01:31:20;;;;;;;10.00;6.38;;;;;;;;;;5071311;28;20021;-66
2021/12/26 01:33:51;;;;;;;11.10;7.03;;;;;;;;;;5071112;28;20125;-67
2021/12/26 01:36:16;;;;;;;12.63;6.90;;;;;;;;;;5071458;28;20028;-66
2021/12/26 01:38:42;;;;;;;10.20;6.70;;;;;;;;;;5071186;28;20032;-66
2021/12/26 01:41:10;;;;;;;12.70;6.72;;;;;;;;;;5053363;28;20109;-67
2021/12/26 01:43:37;;;;;;;11.15;7.05;;;;;;;;;;5071182;28;20020;-66
2021/12/26 01:46:03;;;;;;;9.85;6.65;;;;;;;;;;5070868;28;20372;-67
2021/12/26 01:48:29;;;;;;;12.07;7.00;;;;;;;;;;5071081;28;20499;-66
2021/12/26 01:50:55;;;;;;;11.73;7.60;;;;;;;;;;5070990;28;20078;-67
2021/12/26 01:53:23;;;;;;;12.02;7.00;;;;;;;;;;5070984;28;20017;-66
2021/12/26 01:55:51;;;;;;;10.75;6.65;;;;;;;;;;5070679;28;20375;-66
2021/12/26 01:58:26;;;;;;;12.27;6.35;;;;;;;;;;5070963;28;20495;-67
2021/12/26 02:00:56;;;;;;;10.35;6.72;;;;;;;;;;5071057;28;20025;-68
2021/12/26 02:03:23;;;;;;;10.75;6.70;;;;;;;;;;5070942;28;20056;-66
2021/12/26 02:05:48;;;;;;;12.35;7.28;;;;;;;;;;5070313;28;20035;-66
2021/12/26 02:08:14;;;;;;;10.95;7.03;;;;;;;;;;5070859;28;20020;-67
2021/12/26 02:10:40;;;;;;;10.88;7.25;;;;;;;;;;5070924;28;20112;-66
2021/12/26 02:13:06;;;;;;;10.85;7.65;;;;;;;;;;5070801;28;20517;-67
2021/12/26 02:15:32;;;;;;;10.43;7.53;;;;;;;;;;5070181;28;20028;-67
2021/12/26 02:17:58;;;;;;;11.32;7.60;;;;;;;;;;5070780;28;20070;-67
2021/12/26 02:20:32;;;;;;;12.98;7.25;;;;;;;;;;5070668;28;20088;-66
2021/12/26 02:23:03;;;;;;;17.05;7.30;;;;;;;;;;5070623;28;20060;-67
2021/12/26 02:27:31;;;;;;;12.20;7.78;;;;;;;;;;5070139;28;20024;-68
2021/12/26 02:28:19;;;;;;;9.82;7.18;;;;;;;;;;5069864;28;20412;-66
2021/12/26 02:30:46;;;;;;;11.30;7.10;;;;;;;;;;5070590;28;20035;-69
2021/12/26 02:33:12;;;;;;;13.48;8.13;;;;;;;;;;5070618;28;20640;-67
2021/12/26 02:35:39;;;;;;;11.80;7.60;;;;;;;;;;5070010;28;20066;-67
2021/12/26 02:38:06;;;;;;;12.25;7.57;;;;;;;;;;5070388;28;20069;-66
2021/12/26 02:40:32;;;;;;;14.55;8.05;;;;;;;;;;5070525;28;20021;-67
2021/12/26 02:42:58;;;;;;;15.48;8.38;;;;;;;;;;5070350;28;20029;-67
2021/12/26 02:45:24;;;;;;;10.32;7.50;;;;;;;;;;5074267;28;20100;-67
2021/12/26 02:47:51;;;;;;;13.23;7.63;;;;;;;;;;5070433;28;20021;-67
2021/12/26 02:50:18;;;;;;;15.25;7.63;;;;;;;;;;5070382;28;20507;-67
2021/12/26 02:52:45;;;;;;;12.20;7.57;;;;;;;;;;5070841;28;20112;-67
2021/12/26 02:55:12;;;;;;;10.52;7.05;;;;;;;;;;5069907;28;20033;-67
2021/12/26 02:57:38;;;;;;;9.48;6.72;;;;;;;;;;5072196;28;20029;-66
2021/12/26 03:00:13;;;;;;;10.05;7.50;;;;;;;;;;5070297;28;20074;-66
2021/12/26 03:02:44;;;;;;;13.82;7.20;;;;;;;;;;5070315;28;20017;-66
2021/12/26 03:05:11;;;;;;;10.68;6.93;;;;;;;;;;5069940;28;20016;-67
2021/12/26 03:07:36;;;;;;;10.02;6.88;;;;;;;;;;5070164;28;20075;-68
2021/12/26 03:10:05;;;;;;;11.65;7.10;;;;;;;;;;5066549;28;20026;-69
2021/12/26 03:12:33;;;;;;;11.57;7.30;;;;;;;;;;5071031;28;20032;-67
2021/12/26 03:14:59;;;;;;;9.45;6.38;;;;;;;;;;5069672;28;20581;-67
2021/12/26 03:17:25;;;;;;;12.57;6.70;;;;;;;;;;5072009;28;20025;-67
2021/12/26 03:19:50;;;;;;;11.02;6.38;;;;;;;;;;5073972;28;20056;-66
2021/12/26 03:22:16;;;;;;;10.98;5.68;;;;;;;;;;5074051;28;20044;-67
2021/12/26 03:24:45;;;;;;;9.88;6.15;;;;;;;;;;5073500;28;20539;-66
2021/12/26 03:27:12;;;;;;;10.23;5.68;;;;;;;;;;5073823;28;20104;-67
2021/12/26 03:29:39;;;;;;;12.07;5.75;;;;;;;;;;5073823;28;20085;-66
2021/12/26 03:32:05;;;;;;;10.07;5.43;;;;;;;;;;5073699;28;20357;-67
2021/12/26 03:34:31;;;;;;;10.15;5.10;;;;;;;;;;5073318;28;20049;-70
2021/12/26 03:36:56;;;;;;;7.88;4.97;;;;;;;;;;5073525;28;20260;-67
2021/12/26 03:39:23;;;;;;;8.32;4.88;;;;;;;;;;5073493;28;20040;-67
2021/12/26 03:41:49;;;;;;;7.00;4.93;;;;;;;;;;5073590;28;20024;-67
2021/12/26 03:44:15;;;;;;;8.55;5.28;;;;;;;;;;5073520;28;20037;-67
2021/12/26 03:46:41;;;;;;;7.65;4.72;;;;;;;;;;5073269;28;20025;-66
2021/12/26 03:49:06;;;;;;;11.07;5.03;;;;;;;;;;5073424;28;20028;-66
2021/12/26 03:51:34;;;;;;;11.30;5.55;;;;;;;;;;5073671;28;20482;-67
2021/12/26 03:54:03;;;;;;;10.85;5.97;;;;;;;;;;5073165;28;20467;-67
2021/12/26 03:56:29;;;;;;;8.10;5.13;;;;;;;;;;5088605;28;20123;-66
2021/12/26 03:58:54;;;;;;;12.02;5.93;;;;;;;;;;5073194;28;20070;-67
2021/12/26 04:01:20;;;;;;;9.77;5.57;;;;;;;;;;5073332;28;20025;-68
2021/12/26 04:03:45;;;;;;;11.00;6.50;;;;;;;;;;5073205;28;20419;-67
2021/12/26 04:06:11;;;;;;;9.50;5.55;;;;;;;;;;5074915;28;20032;-67
2021/12/26 04:08:36;;;;;;;9.75;5.88;;;;;;;;;;5073100;28;20395;-67
2021/12/26 04:11:04;;;;;;;12.60;5.72;;;;;;;;;;5073097;28;20024;-66
2021/12/26 04:13:30;;;;;;;13.27;5.97;;;;;;;;;;5072901;28;20487;-67
2021/12/26 04:15:56;;;;;;;7.68;5.50;;;;;;;;;;5072520;28;20063;-67
2021/12/26 04:18:21;;;;;;;10.07;6.47;;;;;;;;;;5072918;28;20467;-67
2021/12/26 04:20:47;;;;;;;10.43;6.47;;;;;;;;;;5072808;28;20032;-67
2021/12/26 04:23:14;;;;;;;12.90;7.00;;;;;;;;;;5072892;28;20024;-66
2021/12/26 04:25:41;;;;;;;11.30;7.00;;;;;;;;;;5072407;28;20098;-67
2021/12/26 04:28:07;;;;;;;9.27;6.22;;;;;;;;;;5074308;28;20040;-67
2021/12/26 04:30:34;;;;;;;10.45;6.57;;;;;;;;;;5072660;28;20112;-66
2021/12/26 04:33:01;;;;;;;10.77;6.47;;;;;;;;;;5074790;28;20025;-69
2021/12/26 04:35:27;;;;;;;11.77;6.85;;;;;;;;;;5072205;28;20055;-67
2021/12/26 04:37:53;;;;;;;11.32;7.07;;;;;;;;;;5072368;28;20391;-66
2021/12/26 04:40:19;;;;;;;14.05;7.20;;;;;;;;;;5054441;28;20039;-67
2021/12/26 04:42:46;;;;;;;10.63;6.75;;;;;;;;;;5072442;28;20048;-67
2021/12/26 04:45:13;;;;;;;11.48;6.68;;;;;;;;;;5072210;28;20395;-67
2021/12/26 04:47:39;;;;;;;13.25;7.40;;;;;;;;;;5072288;28;20108;-66
2021/12/26 04:50:12;;;;;;;9.38;6.20;;;;;;;;;;5072359;28;20622;-66
2021/12/26 04:52:39;;;;;;;12.07;6.13;;;;;;;;;;5072204;28;20029;-66
2021/12/26 04:55:07;;;;;;;11.18;6.25;;;;;;;;;;5074007;28;20027;-67
2021/12/26 04:57:32;;;;;;;17.83;6.05;;;;;;;;;;5071949;28;20126;-66
2021/12/26 04:59:58;;;;;;;8.50;5.22;;;;;;;;;;5072255;28;20482;-66
2021/12/26 05:02:24;;;;;;;14.23;5.90;;;;;;;;;;5072314;28;20127;-67
2021/12/26 05:04:51;;;;;;;9.10;5.20;;;;;;;;;;5071963;28;20103;-66
2021/12/26 05:07:17;;;;;;;9.27;5.57;;;;;;;;;;5053866;28;20028;-66
2021/12/26 05:09:45;;;;;;;7.72;4.90;;;;;;;;;;5072095;28;20040;-66
2021/12/26 05:12:10;;;;;;;8.60;4.63;;;;;;;;;;5069551;28;20422;-66
2021/12/26 05:14:36;;;;;;;7.75;4.88;;;;;;;;;;5071522;28;20035;-66
2021/12/26 05:17:01;;;;;;;8.25;5.25;;;;;;;;;;5071354;28;20388;-67
2021/12/26 05:19:27;;;;;;;9.75;4.55;;;;;;;;;;5071631;28;20082;-66
2021/12/26 05:21:52;;;;;;;11.65;4.82;;;;;;;;;;5071693;28;20035;-66
2021/12/26 05:24:17;;;;;;;7.78;4.50;;;;;;;;;;5071675;28;20384;-66
2021/12/26 05:26:43;;;;;;;8.43;4.60;;;;;;;;;;5071140;28;20570;-66
2021/12/26 05:29:08;;;;;;;6.50;4.13;;;;;;;;;;5071384;28;20028;-66
2021/12/26 05:31:37;;;;;;;7.85;4.40;;;;;;;;;;5071503;28;20024;-66
2021/12/26 05:34:02;;;;;;;9.88;4.38;;;;;;;;;;5073181;28;20049;-67
2021/12/26 05:36:28;;;;;;;6.15;3.75;;;;;;;;;;5070953;28;20476;-66
2021/12/26 05:38:54;;;;;;;7.95;4.32;;;;;;;;;;5070911;28;20032;-66
2021/12/26 05:41:19;;;;;;;6.03;4.10;;;;;;;;;;5071113;28;20645;-66
2021/12/26 05:43:45;;;;;;;9.73;3.97;;;;;;;;;;5071094;28;20025;-66
2021/12/26 05:46:11;;;;;;;7.72;3.83;;;;;;;;;;5070884;28;20068;-66
2021/12/26 05:48:36;;;;;;;7.35;3.90;;;;;;;;;;5072545;28;20655;-66
2021/12/26 05:51:02;;;;;;;6.70;3.50;;;;;;;;;;5053646;28;20438;-66
2021/12/26 05:53:27;;;;;;;6.45;3.80;;;;;;;;;;5071948;28;20430;-67
2021/12/26 05:55:53;;;;;;;6.68;3.80;;;;;;;;;;5072125;28;20115;-66
2021/12/26 05:58:18;;;;;;;10.20;3.95;;;;;;;;;;5070915;28;20052;-66
2021/12/26 06:00:44;;;;;;;6.55;4.00;;;;;;;;;;5070977;28;20055;-66
2021/12/26 06:03:09;;;;;;;7.45;3.33;;;;;;;;;;5072916;28;20040;-66
2021/12/26 06:05:34;;;;;;;10.63;3.65;;;;;;;;;;5071022;28;20138;-66
2021/12/26 06:08:00;;;;;;;8.18;3.80;;;;;;;;;;5070576;28;20123;-66
2021/12/26 06:10:25;;;;;;;8.98;4.10;;;;;;;;;;5070821;28;20040;-67
2021/12/26 06:12:52;;;;;;;6.25;3.80;;;;;;;;;;5070687;28;20020;-67
2021/12/26 06:15:18;;;;;;;6.60;3.60;;;;;;;;;;5072674;28;20020;-66
2021/12/26 06:17:43;;;;;;;7.38;4.10;;;;;;;;;;5070378;28;20102;-66
2021/12/26 06:20:14;;;;;;;6.28;3.65;;;;;;;;;;5052671;28;20119;-67
2021/12/26 06:22:44;;;;;;;6.20;3.70;;;;;;;;;;5070929;28;20032;-66
2021/12/26 06:25:11;;;;;;;6.03;3.72;;;;;;;;;;5072503;28;20582;-66
2021/12/26 06:27:36;;;;;;;7.88;3.70;;;;;;;;;;5070213;28;20048;-67
2021/12/26 06:30:07;;;;;;;6.30;4.05;;;;;;;;;;5072611;28;20082;-67
2021/12/26 06:32:33;;;;;;;7.00;3.67;;;;;;;;;;5070554;28;20024;-68
2021/12/26 06:34:58;;;;;;;6.43;3.90;;;;;;;;;;5070332;28;20051;-67
2021/12/26 06:37:24;;;;;;;6.65;3.40;;;;;;;;;;5070158;28;20086;-67
2021/12/26 06:39:49;;;;;;;13.85;4.25;;;;;;;;;;5070582;28;20557;-67
2021/12/26 06:42:15;;;;;;;7.30;3.40;;;;;;;;;;5070599;28;20024;-68
2021/12/26 06:44:40;;;;;;;6.90;3.72;;;;;;;;;;5070293;28;20024;-68
2021/12/26 06:47:06;;;;;;;6.97;3.95;;;;;;;;;;5052173;28;20024;-67
2021/12/26 06:49:32;;;;;;;5.90;3.78;;;;;;;;;;5070464;28;20017;-67
2021/12/26 06:51:57;;;;;;;8.48;4.25;;;;;;;;;;5073273;28;20035;-70
2021/12/26 06:54:23;;;;;;;7.95;4.15;;;;;;;;;;5074577;28;20024;-68
2021/12/26 06:56:49;;;;;;;7.13;4.25;;;;;;;;;;5072823;28;20399;-70
2021/12/26 06:59:15;;;;;;;8.05;4.18;;;;;;;;;;5074065;28;20036;-74
2021/12/26 07:01:40;;;;;;;6.50;3.92;;;;;;;;;;5072926;28;20081;-69
2021/12/26 07:04:06;;;;;;;7.20;3.92;;;;;;;;;;5074707;28;20017;-70
2021/12/26 07:06:31;;;;;;;7.95;4.18;;;;;;;;;;5074059;28;20016;-69
2021/12/26 07:08:57;;;;;;;10.48;4.70;;;;;;;;;;5074279;28;20029;-69
2021/12/26 07:11:22;;;;;;;7.57;4.95;;;;;;;;;;5074165;28;20458;-70
2021/12/26 07:13:48;;;;;;;10.40;4.75;;;;;;;;;;5073907;28;20020;-69
2021/12/26 07:16:13;;;;;;;10.85;4.82;;;;;;;;;;5073800;28;20060;-72
2021/12/26 07:18:38;;;;;;;8.93;5.00;;;;;;;;;;5073111;28;20021;-70
2021/12/26 07:21:04;;;;;;;8.25;5.40;;;;;;;;;;5073139;28;20033;-72
2021/12/26 07:23:30;;;;;;;9.57;5.50;;;;;;;;;;5073499;28;20438;-69
2021/12/26 07:25:55;;;;;;;9.80;5.05;;;;;;;;;;5073562;28;20032;-70
2021/12/26 07:28:21;;;;;;;8.15;4.95;;;;;;;;;;5073435;28;20028;-70
2021/12/26 07:30:46;;;;;;;12.23;5.53;;;;;;;;;;5073693;28;20029;-71
2021/12/26 07:33:12;;;;;;;9.02;5.55;;;;;;;;;;5073832;28;20040;-69
2021/12/26 07:35:37;;;;;;;10.52;5.53;;;;;;;;;;5073510;28;20526;-71
2021/12/26 07:38:03;;;;;;;9.45;5.05;;;;;;;;;;5055301;28;20033;-69
2021/12/26 07:40:28;;;;;;;9.85;5.05;;;;;;;;;;5073678;28;20025;-69
2021/12/26 07:42:54;;;;;;;8.32;5.50;;;;;;;;;;5073335;28;20100;-71
2021/12/26 07:45:19;;;;;;;11.90;5.45;;;;;;;;;;5073489;28;20028;-69
2021/12/26 07:47:45;;;;;;;8.80;5.18;;;;;;;;;;5073374;28;20456;-69
2021/12/26 07:50:10;;;;;;;10.80;5.63;;;;;;;;;;5073489;28;20395;-71
2021/12/26 07:52:40;;;;;;;7.82;4.80;;;;;;;;;;5073432;28;20106;-69
2021/12/26 07:55:10;;;;;;;9.63;4.90;;;;;;;;;;5073536;28;20624;-71
2021/12/26 07:57:36;;;;;;;10.63;5.43;;;;;;;;;;5072982;28;20037;-70
2021/12/26 08:00:03;;;;;;;9.25;4.80;;;;;;;;;;5073094;28;20027;-69
2021/12/26 08:02:29;;;;;;;9.65;5.55;;;;;;;;;;5072462;28;20025;-69
2021/12/26 08:04:54;;;;;;;8.90;5.10;;;;;;;;;;5073065;28;20078;-69
2021/12/26 08:07:20;;;;;;;9.40;5.50;;;;;;;;;;5072797;28;20033;-70
2021/12/26 08:09:45;;;;;;;8.75;5.03;;;;;;;;;;5073263;28;20115;-69
2021/12/26 08:12:11;;;;;;;7.55;4.70;;;;;;;;;;5071632;28;20399;-70
2021/12/26 08:14:36;;;;;;;7.45;4.55;;;;;;;;;;5072772;28;20519;-70
2021/12/26 08:17:03;;;;;;;10.38;4.90;;;;;;;;;;5072389;28;20154;-69
2021/12/26 08:19:28;;;;;;;8.82;4.70;;;;;;;;;;5072854;28;20024;-69
2021/12/26 08:21:54;;;;;;;7.07;4.57;;;;;;;;;;5072753;28;20115;-72
2021/12/26 08:24:19;;;;;;;7.05;4.53;;;;;;;;;;5072854;28;20062;-69
2021/12/26 08:26:49;;;;;;;8.38;4.70;;;;;;;;;;5072452;28;20020;-70
2021/12/26 08:29:16;;;;;;;9.10;5.10;;;;;;;;;;5072562;28;20077;-69
2021/12/26 08:31:41;;;;;;;9.60;4.55;;;;;;;;;;5072682;28;20063;-68
2021/12/26 08:34:07;;;;;;;7.75;4.38;;;;;;;;;;5072420;28;20069;-69
2021/12/26 08:36:32;;;;;;;8.52;5.10;;;;;;;;;;5072606;28;20028;-69
2021/12/26 08:38:59;;;;;;;11.88;5.65;;;;;;;;;;5072061;28;20037;-73
2021/12/26 08:41:24;;;;;;;7.75;4.78;;;;;;;;;;5072479;28;20033;-67
2021/12/26 08:43:50;;;;;;;7.00;5.03;;;;;;;;;;5072396;28;20044;-67
2021/12/26 08:46:16;;;;;;;9.52;5.60;;;;;;;;;;5072342;28;20033;-70
2021/12/26 08:48:41;;;;;;;10.13;5.15;;;;;;;;;;5072112;28;20046;-68
2021/12/26 08:51:07;;;;;;;7.82;4.88;;;;;;;;;;5071319;28;20028;-68
2021/12/26 08:53:33;;;;;;;7.88;5.10;;;;;;;;;;5070750;28;20025;-71
2021/12/26 08:55:59;;;;;;;8.75;4.40;;;;;;;;;;5071417;28;20070;-69
2021/12/26 08:58:25;;;;;;;8.20;4.20;;;;;;;;;;5071445;28;20024;-67
2021/12/26 09:00:51;;;;;;;6.85;4.30;;;;;;;;;;5071191;28;20040;-69
2021/12/26 09:03:16;;;;;;;8.52;4.50;;;;;;;;;;5071927;28;20488;-69
2021/12/26 09:05:42;;;;;;;8.45;4.70;;;;;;;;;;5074466;28;20117;-70
2021/12/26 09:08:10;;;;;;;8.18;4.30;;;;;;;;;;5072991;28;20071;-70
2021/12/26 09:10:40;;;;;;;7.00;4.40;;;;;;;;;;5070201;28;20027;-69
2021/12/26 09:13:06;;;;;;;11.30;5.00;;;;;;;;;;5071541;28;20017;-70
2021/12/26 09:15:32;;;;;;;8.85;5.30;;;;;;;;;;5069081;28;20112;-75
2021/12/26 09:17:59;;;;;;;8.75;5.00;;;;;;;;;;5074660;28;20330;-72
2021/12/26 09:20:25;;;;;;;7.93;4.80;;;;;;;;;;5071602;28;20020;-69
2021/12/26 09:22:50;;;;;;;10.75;5.28;;;;;;;;;;5071643;28;20020;-72
2021/12/26 09:25:16;;;;;;;9.43;4.90;;;;;;;;;;5073353;28;20061;-70
2021/12/26 09:27:41;;;;;;;12.73;4.78;;;;;;;;;;5073612;28;20456;-70
2021/12/26 09:30:08;;;;;;;8.27;4.72;;;;;;;;;;5071427;28;20519;-71
2021/12/26 09:32:35;;;;;;;9.32;4.88;;;;;;;;;;5071371;28;20024;-70
2021/12/26 09:35:01;;;;;;;10.23;5.50;;;;;;;;;;5070577;28;20533;-69
2021/12/26 09:37:27;;;;;;;8.85;5.05;;;;;;;;;;5069775;28;20032;-69
2021/12/26 09:39:55;;;;;;;9.20;5.20;;;;;;;;;;5071376;28;20024;-72
2021/12/26 09:42:21;;;;;;;8.70;5.28;;;;;;;;;;5053452;28;20637;-71
2021/12/26 09:44:47;;;;;;;8.60;5.00;;;;;;;;;;5080927;28;20024;-76
2021/12/26 09:47:14;;;;;;;7.43;4.63;;;;;;;;;;5090287;28;20024;-71
2021/12/26 09:49:40;;;;;;;8.40;4.75;;;;;;;;;;5090673;28;20042;-70
2021/12/26 09:52:06;;;;;;;25.70;14.70;;;;;;;;;;5085874;28;20025;-69
2021/12/26 09:54:32;;;;;;;15.18;8.70;;;;;;;;;;5067567;28;20036;-71
2021/12/26 09:56:57;;;;;;;11.93;5.70;;;;;;;;;;5073558;28;20399;-69
2021/12/26 09:59:23;;;;;;;9.65;5.10;;;;;;;;;;5070466;28;20384;-70
2021/12/26 10:01:50;;;;;;;8.63;5.45;;;;;;;;;;5070486;28;20040;-71
2021/12/26 10:04:28;;;;;;;8.13;4.80;;;;;;;;;;5070895;28;20035;-68
2021/12/26 10:07:14;;;;;;;8.90;5.50;;;;;;;;;;5070749;28;20029;-68
2021/12/26 10:09:45;;;;;;;10.32;4.90;;;;;;;;;;5071239;28;20441;-70
2021/12/26 10:12:13;;;;;;;8.60;5.15;;;;;;;;;;5069853;28;20055;-69
2021/12/26 10:14:40;;;;;;;7.13;4.40;;;;;;;;;;5070639;28;20028;-70
2021/12/26 10:17:09;;;;;;;9.30;5.63;;;;;;;;;;5072070;28;20492;-71
2021/12/26 10:19:36;;;;;;;8.15;4.78;;;;;;;;;;5072018;28;20103;-71
2021/12/26 10:22:04;;;;;;;6.40;4.20;;;;;;;;;;5072698;28;20028;-73
2021/12/26 10:24:34;;;;;;;7.28;4.03;;;;;;;;;;5070677;28;20032;-72
2021/12/26 10:27:10;;;;;;;7.80;4.03;;;;;;;;;;5070891;28;20028;-70
2021/12/26 10:29:49;;;;;;;8.25;4.18;;;;;;;;;;5070946;28;20384;-69
2021/12/26 10:32:33;;;;;;;8.93;4.32;;;;;;;;;;5071444;28;20028;-71
2021/12/26 10:35:08;;;;;;;8.90;4.80;;;;;;;;;;5069022;28;20527;-71
2021/12/26 10:37:38;;;;;;;8.45;4.30;;;;;;;;;;5070313;28;20044;-77
2021/12/26 10:40:18;;;;;;;9.35;4.30;;;;;;;;;;5071980;28;20037;-71
2021/12/26 10:42:48;;;;;;;10.20;4.55;;;;;;;;;;5069975;28;20016;-73
2021/12/26 10:45:17;;;;;;;6.82;3.78;;;;;;;;;;5070527;28;20029;-67
2021/12/26 10:47:48;;;;;;;6.80;3.92;;;;;;;;;;5069866;28;20057;-69
2021/12/26 10:50:20;;;;;;;8.35;3.40;;;;;;;;;;5070562;28;20519;-69
2021/12/26 10:52:53;;;;;;;7.75;3.58;;;;;;;;;;5071786;28;20025;-70
2021/12/26 10:55:26;;;;;;;7.15;4.30;;;;;;;;;;5070301;28;20117;-71
2021/12/26 10:57:52;;;;;;;7.28;4.78;;;;;;;;;;5075740;28;20087;-68
2021/12/26 11:00:23;;;;;;;8.13;4.70;;;;;;;;;;5091420;28;20024;-72
2021/12/26 11:02:59;;;;;;;8.10;3.95;;;;;;;;;;5067142;28;20701;-68
2021/12/26 11:05:30;;;;;;;5.53;3.25;;;;;;;;;;5069800;28;20036;-70
2021/12/26 11:07:58;;;;;;;7.97;3.40;;;;;;;;;;5050141;28;20025;-69
2021/12/26 11:10:44;;;;;;;6.43;3.10;;;;;;;;;;5064016;28;20020;-70
2021/12/26 11:13:23;;;;;;;6.50;3.17;;;;;;;;;;5069305;28;20492;-70
2021/12/26 11:15:54;;;;;;;8.27;3.67;;;;;;;;;;5071179;28;20032;-67
2021/12/26 11:18:19;;;;;;;6.38;2.97;;;;;;;;;;5089275;28;20035;-68
2021/12/26 11:20:49;;;;;;;8.60;3.95;;;;;;;;;;5091634;28;20020;-71
2021/12/26 11:23:17;;;;;;;7.65;3.60;;;;;;;;;;5090832;28;20032;-68
2021/12/26 11:25:47;;;;;;;7.22;3.65;;;;;;;;;;5070944;28;20016;-66
2021/12/26 11:28:15;;;;;;;5.70;3.28;;;;;;;;;;5088309;28;20065;-71
2021/12/26 11:30:43;;;;;;;6.43;3.75;;;;;;;;;;5092039;28;20024;-70
2021/12/26 11:33:10;;;;;;;8.68;3.83;;;;;;;;;;5090046;28;20121;-68
2021/12/26 11:35:37;;;;;;;9.05;3.67;;;;;;;;;;5091753;28;20040;-69
2021/12/26 11:38:04;;;;;;;5.43;3.00;;;;;;;;;;5093446;28;20040;-70
2021/12/26 11:40:30;;;;;;;7.93;3.28;;;;;;;;;;5093896;28;20069;-67
2021/12/26 11:43:01;;;;;;;10.05;3.30;;;;;;;;;;5093566;28;20036;-70
2021/12/26 11:45:40;;;;;;;10.23;5.57;;;;;;;;;;5093789;28;20024;-68
2021/12/26 11:48:48;;;;;;;9.95;5.00;;;;;;;;;;5095614;28;20070;-69
2021/12/26 11:51:41;;;;;;;5.55;3.20;;;;;;;;;;5093690;28;20115;-69
2021/12/26 11:54:47;;;;;;;5.25;3.25;;;;;;;;;;5093739;28;20030;-66
2021/12/26 11:57:51;;;;;;;7.90;3.83;;;;;;;;;;5095585;28;20028;-70
2021/12/26 12:00:34;;;;;;;8.23;3.25;;;;;;;;;;5093540;28;20031;-68
2021/12/26 12:03:03;;;;;;;7.85;3.45;;;;;;;;;;5095461;28;20395;-67
2021/12/26 12:05:38;;;;;;;6.25;2.83;;;;;;;;;;5093432;28;20089;-68
2021/12/26 12:08:09;;;;;;;6.90;2.80;;;;;;;;;;5093461;28;20057;-67
2021/12/26 12:10:42;;;;;;;9.40;2.97;;;;;;;;;;5095156;28;20024;-71
2021/12/26 12:13:39;;;;;;;6.18;2.70;;;;;;;;;;5093235;28;20489;-70
2021/12/26 12:16:05;;;;;;;7.05;2.90;;;;;;;;;;5093003;28;20035;-70
2021/12/26 12:18:36;;;;;;;6.32;2.83;;;;;;;;;;5094935;28;20032;-69
2021/12/26 12:21:16;;;;;;;8.05;2.80;;;;;;;;;;5093209;28;20175;-69
2021/12/26 12:24:03;;;;;;;7.47;3.10;;;;;;;;;;5093106;28;20141;-71
2021/12/26 12:26:45;;;;;;;7.25;2.80;;;;;;;;;;5093013;28;20483;-69
2021/12/26 12:29:33;;;;;;;7.57;2.95;;;;;;;;;;5092796;28;20024;-73
2021/12/26 12:32:07;;;;;;;6.55;2.80;;;;;;;;;;5064557;28;20144;-72
2021/12/26 12:35:04;;;;;;;5.63;2.75;;;;;;;;;;5092640;28;20052;-71
2021/12/26 12:37:39;;;;;;;6.07;2.88;;;;;;;;;;5092619;28;20024;-69
2021/12/26 12:40:13;;;;;;;6.43;3.15;;;;;;;;;;5092767;28;20475;-67
2021/12/26 12:42:41;;;;;;;6.40;3.00;;;;;;;;;;5074546;28;20065;-72
2021/12/26 12:45:08;;;;;;;6.28;2.70;;;;;;;;;;5098254;28;20035;-67
2021/12/26 12:47:33;;;;;;;5.25;2.88;;;;;;;;;;5092493;28;20016;-67
2021/12/26 12:50:03;;;;;;;6.03;2.60;;;;;;;;;;5094358;28;20053;-68
2021/12/26 12:52:49;;;;;;;8.00;3.00;;;;;;;;;;5092523;28;20107;-69
2021/12/26 12:55:43;;;;;;;5.20;2.38;;;;;;;;;;5078330;28;20024;-70
2021/12/26 12:58:23;;;;;;;6.82;2.63;;;;;;;;;;5073492;28;20031;-66
2021/12/26 13:00:49;;;;;;;4.35;2.50;;;;;;;;;;5072332;28;20034;-66
2021/12/26 13:03:18;;;;;;;5.43;2.22;;;;;;;;;;5070344;28;20085;-71
2021/12/26 13:05:45;;;;;;;4.82;2.50;;;;;;;;;;5071328;28;20036;-69
2021/12/26 13:08:14;;;;;;;4.28;2.58;;;;;;;;;;5071811;28;20403;-68
2021/12/26 13:10:40;;;;;;;6.95;2.53;;;;;;;;;;5071830;28;20020;-72
2021/12/26 13:13:08;;;;;;;3.38;2.00;;;;;;;;;;5071388;28;20074;-75
2021/12/26 13:15:36;;;;;;;4.00;1.92;;;;;;;;;;5071829;28;20037;-70
2021/12/26 13:18:07;;;;;;;10.15;2.47;;;;;;;;;;5071910;28;20098;-70
2021/12/26 13:20:32;;;;;;;;;;;;;;;;;;5073021;28;20052;-71
2021/12/26 13:23:04;;;;;;;4.85;2.13;;;;;;;;;;5073340;28;19913;-70
2021/12/26 13:25:39;;;;;;;8.07;2.35;;;;;;;;;;5071630;28;20024;-69
2021/12/26 13:28:16;;;;;;;8.73;2.20;;;;;;;;;;5070781;28;20054;-68
2021/12/26 13:30:48;;;;;;;7.53;2.30;;;;;;;;;;5070323;28;20040;-69
2021/12/26 13:33:25;;;;;;;4.22;2.30;;;;;;;;;;5070102;28;20124;-68
2021/12/26 13:35:52;;;;;;;4.22;1.88;;;;;;;;;;5070148;28;20548;-68
2021/12/26 13:38:19;;;;;;;5.55;2.10;;;;;;;;;;5070951;28;20029;-67
2021/12/26 13:40:47;;;;;;;5.32;2.58;;;;;;;;;;5071113;28;20013;-66
2021/12/26 13:43:14;;;;;;;6.75;2.30;;;;;;;;;;5071736;28;20078;-69
2021/12/26 13:45:43;;;;;;;7.82;2.67;;;;;;;;;;5070640;28;20419;-67
2021/12/26 13:48:23;;;;;;;4.78;2.30;;;;;;;;;;5069498;28;20016;-69
2021/12/26 13:50:49;;;;;;;6.18;2.70;;;;;;;;;;5053045;28;20056;-69
2021/12/26 13:53:15;;;;;;;4.20;2.40;;;;;;;;;;5071179;28;20123;-69
2021/12/26 13:55:41;;;;;;;4.72;2.45;;;;;;;;;;5070871;28;20032;-65
2021/12/26 13:58:11;;;;;;;6.20;2.42;;;;;;;;;;5070551;28;20468;-67
2021/12/26 14:00:51;;;;;;;6.95;2.47;;;;;;;;;;5070496;28;20028;-68
2021/12/26 14:03:17;;;;;;;5.28;2.70;;;;;;;;;;5071132;28;20060;-68
2021/12/26 14:05:43;;;;;;;6.07;2.45;;;;;;;;;;5071940;28;20085;-71
2021/12/26 14:08:17;;;;;;;5.07;2.85;;;;;;;;;;5089821;28;20036;-66
2021/12/26 14:10:43;;;;;;;6.70;2.63;;;;;;;;;;5090097;28;20028;-68
2021/12/26 14:13:10;;;;;;;6.28;2.40;;;;;;;;;;5089559;28;20107;-67
2021/12/26 14:15:44;;;;;;;6.25;2.80;;;;;;;;;;5090110;28;20024;-71
2021/12/26 14:18:19;;;;;;;5.78;2.15;;;;;;;;;;5089864;28;20020;-74
2021/12/26 14:20:52;;;;;;;6.82;2.50;;;;;;;;;;5089927;28;20073;-74
2021/12/26 14:23:24;;;;;;;6.18;2.33;;;;;;;;;;5087795;28;20057;-67
2021/12/26 14:25:55;;;;;;;5.05;2.60;;;;;;;;;;5071508;28;20024;-74
2021/12/26 14:28:21;;;;;;;6.95;2.50;;;;;;;;;;5069350;28;20024;-66
2021/12/26 14:30:48;;;;;;;6.80;2.70;;;;;;;;;;5069496;28;20025;-69
2021/12/26 14:33:15;;;;;;;4.57;2.25;;;;;;;;;;5051171;28;20101;-66
2021/12/26 14:35:44;;;;;;;4.88;2.20;;;;;;;;;;5069223;28;20056;-69
2021/12/26 14:38:11;;;;;;;7.53;2.58;;;;;;;;;;5069288;28;20031;-74
2021/12/26 14:40:58;;;;;;;5.38;2.63;;;;;;;;;;5070783;28;20400;-68
2021/12/26 14:43:25;;;;;;;5.22;2.65;;;;;;;;;;5069770;28;20051;-71
2021/12/26 14:45:57;;;;;;;6.43;3.17;;;;;;;;;;5069652;28;20079;-67